createdAt,value
2023-08-10T00:00:39.632Z,3.5
2023-08-10T00:15:40.328Z,3.7
2023-08-10T00:30:41.149Z,4.1
2023-08-10T01:00:42.142Z,4.3
2023-08-10T01:12:25.617Z,3.6
2023-08-10T01:15:42.781Z,3
2023-08-10T01:30:43.786Z,3.5
2023-08-10T01:45:44.493Z,4
2023-08-10T02:00:45.268Z,3.8
2023-08-10T02:15:45.650Z,3.2
2023-08-10T02:30:46.683Z,3
2023-08-10T02:45:46.698Z,2.8
2023-08-10T03:00:48.507Z,2.8
2023-08-10T03:15:48.141Z,3
2023-08-10T03:30:48.886Z,3.1
2023-08-10T03:45:50.522Z,3.9
2023-08-10T04:00:51.398Z,4.9
2023-08-10T04:06:09.542Z,5.8
2023-08-10T04:21:10.034Z,4.2
2023-08-10T04:36:11.433Z,5.2
2023-08-10T04:51:12.164Z,5.2
2023-08-10T05:06:12.325Z,4.6
2023-08-10T05:21:14.643Z,6.2
2023-08-10T05:36:15.629Z,6
2023-08-10T05:51:14.701Z,6.2
2023-08-10T06:06:15.425Z,7
2023-08-10T06:21:16.535Z,6.3
2023-08-10T06:36:17.222Z,5.4
2023-08-10T06:51:17.089Z,4.8
2023-08-10T07:06:18.169Z,5.2
2023-08-10T07:21:18.089Z,5.3
2023-08-10T07:36:21.118Z,4.1
2023-08-10T07:51:19.704Z,3.9
2023-08-10T08:06:20.491Z,4
2023-08-10T08:21:21.306Z,4.4
2023-08-10T08:36:21.677Z,3.9
2023-08-10T08:51:23.424Z,3.3
2023-08-10T09:06:22.888Z,3.8
2023-08-10T09:21:23.629Z,3.5
2023-08-10T09:36:24.332Z,3.6
2023-08-10T09:51:25.089Z,3.4
2023-08-10T10:06:25.416Z,3.2
2023-08-10T10:21:26.332Z,3.9
2023-08-10T10:36:28.067Z,3.7
2023-08-10T10:51:28.121Z,2.7
2023-08-10T11:06:29.156Z,2.5
2023-08-10T11:21:29.726Z,2.4
2023-08-10T11:36:30.215Z,2.2
2023-08-10T11:51:31.228Z,2.2
2023-08-10T12:06:30.956Z,2.5
2023-08-10T12:21:32.338Z,2.5
2023-08-10T12:36:32.442Z,2.4
2023-08-10T12:51:33.291Z,2.7
2023-08-10T13:06:34.255Z,2.4
2023-08-10T13:21:34.810Z,2.5
2023-08-10T13:36:36.114Z,2.2
2023-08-10T13:51:36.587Z,2.2
2023-08-10T14:06:36.348Z,2.3
2023-08-10T14:21:37.410Z,2.2
2023-08-10T14:36:38.446Z,2.3
2023-08-10T14:51:38.497Z,2
2023-08-10T15:06:39.466Z,2.3
2023-08-10T15:21:40.605Z,2.7
2023-08-10T15:36:40.636Z,2.2
2023-08-10T15:51:41.489Z,2.7
2023-08-10T16:06:42.494Z,2.9
2023-08-10T16:21:42.935Z,2.6
2023-08-10T16:36:44.253Z,3
2023-08-10T16:51:44.037Z,3.1
2023-08-10T17:06:44.682Z,3
2023-08-10T17:21:45.929Z,2.4
2023-08-10T17:36:47.781Z,2.6
2023-08-10T17:51:48.006Z,2.5
2023-08-10T18:06:47.846Z,2.9
2023-08-10T18:21:59.348Z,2.6
2023-08-10T18:36:51.981Z,3.2
2023-08-10T18:51:49.483Z,3.6
2023-08-10T19:06:49.880Z,3.5
2023-08-10T19:21:50.631Z,3.7
2023-08-10T19:36:51.571Z,4.2
2023-08-10T19:51:58.417Z,4.2
2023-08-10T20:06:57.907Z,4
2023-08-10T20:21:53.671Z,4.2
2023-08-10T20:36:56.291Z,4
2023-08-10T20:52:07.501Z,3.8
2023-08-10T21:06:55.466Z,4.7
2023-08-10T21:21:59.649Z,4.1
2023-08-10T21:36:59.053Z,5
2023-08-10T21:52:08.605Z,5.1
2023-08-10T22:00:37.987Z,5.8
2023-08-10T22:15:34.089Z,4.7
2023-08-10T22:30:35.787Z,5.9
2023-08-10T22:45:35.715Z,6.8
2023-08-10T23:00:35.738Z,6.4
2023-08-10T23:15:36.016Z,4.7
2023-08-10T23:30:40.735Z,5.2
2023-08-10T23:45:37.662Z,5.5
